Time;durP1;ratioP1;P1;durP2;ratioP2;P2;SDS_P1;SDS_P2;PMS_P1;PMS_P2;Temp;Humidity;BMP_temperature;BMP_pressure;BME280_temperature;BME280_humidity;BME280_pressure;Samples;Min_cycle;Max_cycle;Signal;HPM_P1;HPM_P2
2022/12/29 00:01:02;;;;;;;0.50;0.50;;;;;;;10.24;100.00;100002.13;5022675;28;20038;-73
2022/12/29 00:03:27;;;;;;;0.55;0.55;;;;;;;10.33;100.00;99990.75;5021230;28;20446;-73
2022/12/29 00:05:57;;;;;;;1.02;0.40;;;;;;;10.30;100.00;99984.16;5021816;28;20045;-73
2022/12/29 00:08:38;;;;;;;0.68;0.40;;;;;;;10.21;100.00;99979.13;5025970;28;20068;-73
2022/12/29 00:11:10;;;;;;;3.17;0.50;;;;;;;10.27;100.00;99987.03;5023949;28;20175;-74
2022/12/29 00:16:19;;;;;;;1.90;0.40;;;;;;;10.29;100.00;99982.50;5018778;28;20109;-73
2022/12/29 00:18:45;;;;;;;0.38;0.30;;;;;;;10.35;100.00;99978.44;5022196;28;20021;-73
2022/12/29 00:35:09;;;;;;;0.60;0.38;;;;;;;10.22;100.00;99965.22;5016295;28;20535;-73
2022/12/29 00:45:50;;;;;;;0.30;0.30;;;;;;;10.28;100.00;99946.38;5019054;28;20128;-73
2022/12/29 00:49:29;;;;;;;0.28;0.20;;;;;;;10.35;100.00;99939.56;5010145;28;20401;-73
2022/12/29 00:51:01;;;;;;;0.38;0.30;;;;;;;10.33;100.00;99934.53;5021553;28;20076;-73
2022/12/29 00:53:26;;;;;;;1.23;0.50;;;;;;;10.41;100.00;99938.84;5023029;28;20030;-73
2022/12/29 00:55:52;;;;;;;0.90;0.40;;;;;;;10.54;100.00;99940.03;5022859;28;20042;-73
2022/12/29 00:58:17;;;;;;;2.97;0.28;;;;;;;10.48;100.00;99936.38;5030733;28;20396;-73
2022/12/29 01:00:43;;;;;;;0.50;0.32;;;;;;;10.55;100.00;99926.09;5021109;28;20030;-73
2022/12/29 01:03:08;;;;;;;0.45;0.30;;;;;;;10.57;99.96;99930.13;5025128;28;20030;-74
2022/12/29 01:05:36;;;;;;;1.75;0.45;;;;;;;10.57;99.62;99930.13;5022184;28;20637;-73
2022/12/29 01:08:02;;;;;;;1.30;0.75;;;;;;;10.50;99.56;99924.84;5023819;28;20561;-73
2022/12/29 01:10:28;;;;;;;1.15;0.40;;;;;;;10.41;100.00;99932.88;5017485;28;20065;-73
2022/12/29 01:12:54;;;;;;;0.30;0.20;;;;;;;10.46;99.98;99927.97;5020324;28;20117;-75
2022/12/29 01:15:19;;;;;;;0.75;0.43;;;;;;;10.47;99.98;99924.38;5024552;28;20033;-73
2022/12/29 01:17:45;;;;;;;1.55;0.50;;;;;;;10.51;99.49;99921.28;5025318;28;20083;-73
2022/12/29 01:20:11;;;;;;;0.40;0.30;;;;;;;10.59;99.19;99928.16;5023390;28;20532;-73
2022/12/29 01:22:36;;;;;;;0.43;0.28;;;;;;;10.58;98.83;99915.38;5034063;28;20148;-73
2022/12/29 01:25:03;;;;;;;1.25;0.30;;;;;;;10.67;98.02;99917.69;5018581;28;20572;-73
2022/12/29 01:27:29;;;;;;;0.38;0.28;;;;;;;10.52;98.72;99915.09;5008989;28;20064;-73
2022/12/29 01:29:54;;;;;;;0.82;0.30;;;;;;;10.65;97.68;99913.69;5017734;28;20052;-73
2022/12/29 01:32:20;;;;;;;0.50;0.45;;;;;;;10.68;97.18;99921.09;5026832;28;20038;-72
2022/12/29 01:34:45;;;;;;;0.77;0.30;;;;;;;10.64;96.76;99923.25;5018394;28;20091;-73
2022/12/29 01:37:11;;;;;;;0.90;0.40;;;;;;;10.68;96.88;99910.72;5026835;28;20034;-71
2022/12/29 01:39:37;;;;;;;1.20;0.20;;;;;;;10.59;96.73;99906.63;5036684;28;20049;-73
2022/12/29 01:42:02;;;;;;;0.65;0.40;;;;;;;10.65;96.34;99895.53;5011546;28;20542;-73
2022/12/29 01:44:59;;;;;;;0.75;0.50;;;;;;;10.59;97.06;99897.06;5022655;28;20446;-73
2022/12/29 01:47:38;;;;;;;0.75;0.50;;;;;;;10.63;96.31;99892.31;5022688;28;20229;-74
2022/12/29 01:50:15;;;;;;;1.17;0.30;;;;;;;10.55;96.68;99887.19;5031878;28;20034;-73
2022/12/29 01:52:52;;;;;;;0.98;0.40;;;;;;;10.57;95.41;99895.59;5011979;28;20862;-73
2022/12/29 01:55:18;;;;;;;1.33;0.38;;;;;;;10.62;95.25;99899.28;5039493;28;20038;-73
2022/12/29 01:57:49;;;;;;;0.85;0.45;;;;;;;10.62;95.06;99885.50;5020581;28;20021;-73
2022/12/29 02:00:15;;;;;;;0.52;0.30;;;;;;;10.49;95.40;99891.31;5018045;28;20585;-73
2022/12/29 02:02:52;;;;;;;3.50;1.45;;;;;;;10.48;95.71;99913.84;5024221;28;20030;-73
2022/12/29 02:05:33;;;;;;;0.82;0.30;;;;;;;10.52;95.04;99898.75;5040784;28;20037;-73
2022/12/29 02:08:01;;;;;;;1.55;0.40;;;;;;;10.49;95.24;99904.28;5029029;28;20037;-73
2022/12/29 02:10:31;;;;;;;1.25;0.57;;;;;;;10.56;94.64;99897.41;5024398;28;20037;-74
2022/12/29 02:12:56;;;;;;;1.55;0.30;;;;;;;10.60;93.49;99901.25;5021490;28;20515;-73
2022/12/29 02:15:39;;;;;;;1.75;0.40;;;;;;;10.52;93.95;99890.97;5021051;28;20037;-73
2022/12/29 02:18:10;;;;;;;0.95;0.38;;;;;;;10.50;93.98;99895.53;5039790;28;20116;-73
2022/12/29 02:21:24;;;;;;;4.80;0.57;;;;;;;10.46;93.89;99896.88;5025767;28;20108;-73
2022/12/29 02:24:27;;;;;;;3.60;0.73;;;;;;;10.39;93.62;99883.78;4992497;28;20040;-74
2022/12/29 02:27:00;;;;;;;0.90;0.50;;;;;;;10.52;92.57;99881.41;5022356;28;20033;-73
2022/12/29 02:29:44;;;;;;;2.97;0.50;;;;;;;10.54;92.04;99880.44;5007608;28;20052;-73
2022/12/29 02:32:27;;;;;;;1.35;0.60;;;;;;;10.58;92.30;99885.06;5035532;28;20030;-73
2022/12/29 02:34:58;;;;;;;3.30;0.60;;;;;;;10.39;93.12;99880.41;4998072;28;20041;-73
2022/12/29 02:37:45;;;;;;;2.35;0.70;;;;;;;10.49;92.49;99873.16;5026343;28;20044;-73
2022/12/29 02:40:31;;;;;;;0.75;0.55;;;;;;;10.63;92.20;99867.19;5020618;28;20029;-73
2022/12/29 02:43:22;;;;;;;2.50;0.50;;;;;;;10.57;92.22;99870.50;5018807;28;20116;-74
2022/12/29 02:45:59;;;;;;;2.28;0.80;;;;;;;10.53;92.17;99869.25;4986850;28;20057;-73
2022/12/29 02:48:32;;;;;;;6.18;0.80;;;;;;;10.58;91.80;99873.91;5020559;28;20134;-73
2022/12/29 02:51:12;;;;;;;1.70;0.50;;;;;;;10.63;91.85;99862.00;5016509;28;20045;-73
2022/12/29 02:56:23;;;;;;;2.28;0.60;;;;;;;10.60;92.85;99869.34;5036861;28;20124;-73
2022/12/29 02:58:48;;;;;;;3.97;0.70;;;;;;;10.61;92.74;99858.78;5009394;28;20029;-73
2022/12/29 03:01:18;;;;;;;2.65;0.60;;;;;;;10.60;92.81;99848.59;5004966;28;20033;-73
2022/12/29 03:04:01;;;;;;;1.63;0.88;;;;;;;10.57;93.00;99849.78;5023472;28;20125;-73
2022/12/29 03:06:30;;;;;;;1.33;0.60;;;;;;;10.61;93.15;99858.00;5037790;28;20564;-73
2022/12/29 03:09:13;;;;;;;2.25;0.50;;;;;;;10.60;93.02;99841.63;5009893;28;20049;-72
2022/12/29 03:12:08;;;;;;;1.95;0.57;;;;;;;10.55;93.02;99846.56;5037658;28;20084;-73
2022/12/29 03:18:01;;;;;;;1.98;0.50;;;;;;;10.59;93.91;99832.25;5025061;28;20040;-74
2022/12/29 03:20:42;;;;;;;1.50;0.57;;;;;;;10.62;94.52;99829.28;5013550;28;20037;-73
2022/12/29 03:23:10;;;;;;;1.60;0.55;;;;;;;10.55;95.35;99840.53;5017188;28;20065;-73
2022/12/29 03:25:43;;;;;;;2.95;0.70;;;;;;;10.58;95.22;99832.41;5024330;28;20095;-73
2022/12/29 03:28:17;;;;;;;1.38;0.50;;;;;;;10.61;95.65;99821.69;5022914;28;20053;-73
2022/12/29 03:30:46;;;;;;;1.38;0.52;;;;;;;10.58;95.69;99822.06;5002024;28;20033;-73
2022/12/29 03:33:19;;;;;;;2.63;0.60;;;;;;;10.52;96.45;99821.78;5040834;28;20494;-73
2022/12/29 03:35:47;;;;;;;4.38;0.70;;;;;;;10.49;96.51;99831.69;5020319;28;20034;-73
2022/12/29 03:38:29;;;;;;;0.70;0.50;;;;;;;10.58;96.27;99819.47;5026642;28;20064;-73
2022/12/29 03:41:00;;;;;;;0.80;0.50;;;;;;;10.51;96.46;99827.16;5035737;28;20716;-73
2022/12/29 03:43:28;;;;;;;2.28;0.50;;;;;;;10.49;96.85;99816.97;5037295;28;20025;-73
2022/12/29 03:45:54;;;;;;;3.05;0.77;;;;;;;10.48;96.75;99812.75;5019401;28;20083;-73
2022/12/29 03:48:19;;;;;;;1.25;0.40;;;;;;;10.46;97.28;99808.75;5022589;28;20025;-73
2022/12/29 03:50:47;;;;;;;7.75;0.60;;;;;;;10.47;96.35;99807.75;5020497;28;20084;-73
2022/12/29 03:53:14;;;;;;;1.45;0.68;;;;;;;10.52;96.30;99795.06;5014930;28;20025;-73
2022/12/29 03:55:40;;;;;;;0.77;0.50;;;;;;;10.58;95.89;99793.53;5010247;28;20034;-73
2022/12/29 03:58:06;;;;;;;2.05;0.55;;;;;;;10.63;95.30;99794.59;5019874;28;20120;-73
2022/12/29 04:00:50;;;;;;;3.15;0.40;;;;;;;10.77;95.00;99786.97;5016116;28;20041;-72
2022/12/29 04:03:16;;;;;;;1.70;0.50;;;;;;;10.68;94.88;99781.09;5018977;28;20124;-73
2022/12/29 04:05:43;;;;;;;10.43;1.65;;;;;;;10.64;95.21;99790.22;5006100;28;20064;-73
2022/12/29 04:08:09;;;;;;;0.82;0.40;;;;;;;10.70;94.37;99803.28;5020473;28;20025;-73
2022/12/29 04:10:35;;;;;;;0.95;0.30;;;;;;;10.76;94.07;99788.00;5027740;28;20037;-73
2022/12/29 04:13:03;;;;;;;0.82;0.32;;;;;;;10.77;94.22;99798.16;5042103;28;20033;-73
2022/12/29 04:15:28;;;;;;;1.27;0.50;;;;;;;10.68;94.05;99791.47;5006086;28;20149;-73
2022/12/29 04:17:54;;;;;;;1.05;0.77;;;;;;;10.85;93.49;99797.25;5025126;28;20488;-73
2022/12/29 04:23:06;;;;;;;6.22;0.50;;;;;;;10.83;92.35;99800.03;5024037;28;20053;-72
2022/12/29 04:25:33;;;;;;;1.98;0.30;;;;;;;10.74;92.78;99806.31;5043558;28;20030;-72
2022/12/29 04:27:59;;;;;;;2.05;0.50;;;;;;;10.73;92.56;99809.88;5030226;28;20029;-72
2022/12/29 04:30:54;;;;;;;1.33;0.38;;;;;;;10.73;92.60;99814.25;4955157;28;20039;-72
2022/12/29 04:33:29;;;;;;;3.60;0.73;;;;;;;10.66;92.39;99808.97;4995736;28;20027;-72
2022/12/29 04:35:57;;;;;;;3.35;0.57;;;;;;;10.66;92.10;99809.81;4997803;28;20463;-72
2022/12/29 04:38:23;;;;;;;0.80;0.50;;;;;;;10.71;91.95;99810.06;5005332;28;20505;-72
2022/12/29 04:40:50;;;;;;;1.20;0.38;;;;;;;10.74;91.59;99818.44;4987625;28;20037;-73
2022/12/29 04:43:19;;;;;;;2.95;0.60;;;;;;;10.69;91.34;99819.00;4987311;28;20039;-73
2022/12/29 04:46:01;;;;;;;1.70;0.40;;;;;;;10.83;90.60;99825.16;4997350;28;20427;-73
2022/12/29 04:48:34;;;;;;;0.70;0.40;;;;;;;10.68;90.83;99817.38;4985413;28;20185;-73
2022/12/29 04:51:18;;;;;;;2.25;0.57;;;;;;;10.79;89.85;99810.94;4996716;28;20044;-72
2022/12/29 04:53:44;;;;;;;3.00;0.60;;;;;;;10.77;89.75;99823.28;5003183;28;20026;-72
2022/12/29 04:56:09;;;;;;;1.40;0.47;;;;;;;10.81;89.09;99820.16;5000185;28;20063;-72
2022/12/29 04:58:36;;;;;;;2.50;0.90;;;;;;;10.76;89.18;99821.69;4987406;28;20388;-73
2022/12/29 05:01:02;;;;;;;1.73;0.60;;;;;;;10.78;88.99;99833.47;5019624;28;20406;-72
2022/12/29 05:03:29;;;;;;;4.63;0.60;;;;;;;10.81;88.49;99830.53;5019724;28;20452;-72
2022/12/29 05:05:55;;;;;;;3.78;0.60;;;;;;;10.74;89.22;99821.03;5008101;28;20045;-72
2022/12/29 05:08:22;;;;;;;2.38;0.50;;;;;;;10.89;88.52;99833.03;5017762;28;20492;-72
2022/12/29 05:10:50;;;;;;;2.63;0.63;;;;;;;10.78;89.18;99843.06;5021969;28;20061;-72
2022/12/29 05:13:16;;;;;;;3.13;0.40;;;;;;;10.73;90.45;99840.19;5017298;28;20085;-72
2022/12/29 05:15:49;;;;;;;0.65;0.43;;;;;;;10.80;90.31;99848.88;5017148;28;20496;-72
2022/12/29 05:18:14;;;;;;;1.60;0.50;;;;;;;10.67;90.96;99836.53;5017339;28;20117;-72
2022/12/29 05:20:40;;;;;;;1.92;0.55;;;;;;;10.82;90.60;99846.91;5021466;28;20463;-72
2022/12/29 05:23:06;;;;;;;1.48;0.30;;;;;;;10.69;91.41;99843.13;5002398;28;20034;-72
2022/12/29 05:25:31;;;;;;;1.92;0.43;;;;;;;10.67;91.45;99841.72;5015302;28;20033;-72
2022/12/29 05:28:15;;;;;;;4.18;0.50;;;;;;;10.72;92.37;99860.13;4992660;28;20029;-72
2022/12/29 05:30:50;;;;;;;5.95;0.35;;;;;;;10.68;94.49;99854.50;5001875;28;20092;-72
2022/12/29 05:33:19;;;;;;;1.50;0.50;;;;;;;10.63;96.51;99859.41;5022590;28;20080;-73
2022/12/29 05:35:46;;;;;;;2.75;0.50;;;;;;;10.52;97.66;99845.09;5022454;28;20063;-73
2022/12/29 05:38:12;;;;;;;0.63;0.40;;;;;;;10.26;98.99;99857.66;5019655;28;20077;-72
2022/12/29 05:40:38;;;;;;;6.07;0.80;;;;;;;10.21;99.96;99858.19;4992022;28;20030;-72
2022/12/29 05:43:11;;;;;;;3.78;0.80;;;;;;;10.16;100.00;99850.16;4987732;28;20030;-72
2022/12/29 05:46:00;;;;;;;2.63;0.55;;;;;;;10.12;99.78;99846.31;4986087;28;20038;-72
2022/12/29 05:48:42;;;;;;;4.05;0.50;;;;;;;10.11;97.59;99858.47;4983279;28;20022;-72
2022/12/29 05:51:24;;;;;;;3.53;0.50;;;;;;;10.23;95.73;99858.03;4983549;28;20038;-72
2022/12/29 05:53:51;;;;;;;1.35;0.40;;;;;;;10.19;95.82;99849.81;4998624;28;20131;-72
2022/12/29 05:56:17;;;;;;;4.03;0.50;;;;;;;10.19;94.60;99862.75;4982395;28;20038;-73
2022/12/29 05:58:46;;;;;;;5.28;1.05;;;;;;;10.21;94.53;99867.72;4982818;28;20388;-73
2022/12/29 06:01:12;;;;;;;2.92;0.70;;;;;;;10.15;94.56;99869.25;4985725;28;20031;-72
2022/12/29 06:03:37;;;;;;;3.50;0.75;;;;;;;10.19;94.44;99862.75;5000964;28;20605;-72
2022/12/29 06:06:03;;;;;;;4.68;0.75;;;;;;;10.22;92.97;99864.19;4980470;28;20037;-72
2022/12/29 06:08:28;;;;;;;5.60;0.93;;;;;;;10.25;92.45;99859.44;4996347;28;20033;-72
2022/12/29 06:10:54;;;;;;;2.72;0.50;;;;;;;10.32;91.90;99870.75;5017790;28;20062;-72
2022/12/29 06:13:20;;;;;;;3.92;0.55;;;;;;;10.41;90.79;99871.47;5020428;28;20036;-73
2022/12/29 06:15:49;;;;;;;5.28;0.57;;;;;;;10.26;91.09;99874.00;5002282;28;20062;-72
2022/12/29 06:18:15;;;;;;;7.75;0.63;;;;;;;10.27;91.12;99878.22;5004548;28;20109;-72
2022/12/29 06:20:41;;;;;;;1.85;0.50;;;;;;;10.26;91.09;99891.34;5003395;28;20451;-72
2022/12/29 06:23:07;;;;;;;2.55;0.50;;;;;;;10.29;91.28;99903.97;4997952;28;20133;-72
2022/12/29 06:25:33;;;;;;;2.15;0.50;;;;;;;10.24;91.39;99896.69;5002765;28;20065;-72
2022/12/29 06:28:00;;;;;;;1.92;0.50;;;;;;;10.26;91.18;99899.13;4985773;28;20092;-72
2022/12/29 06:30:26;;;;;;;5.82;1.23;;;;;;;10.23;91.59;99910.66;4995622;28;20039;-72
2022/12/29 06:32:52;;;;;;;8.90;0.73;;;;;;;10.39;90.39;99908.91;4970085;28;20036;-72
2022/12/29 06:35:18;;;;;;;2.13;0.40;;;;;;;10.42;89.95;99918.94;4983568;28;20248;-72
2022/12/29 06:37:46;;;;;;;5.18;1.45;;;;;;;10.22;90.58;99921.97;5004763;28;20034;-72
2022/12/29 06:40:12;;;;;;;5.00;0.75;;;;;;;10.30;89.71;99924.53;4988990;28;20038;-73
2022/12/29 06:42:56;;;;;;;1.02;0.60;;;;;;;10.24;89.79;99922.59;5004333;28;20056;-73
2022/12/29 06:45:40;;;;;;;4.22;0.70;;;;;;;10.07;90.75;99915.94;5002922;28;20073;-72
2022/12/29 06:48:06;;;;;;;6.03;0.75;;;;;;;10.22;89.68;99916.78;4988834;28;20057;-72
2022/12/29 06:50:32;;;;;;;5.78;0.68;;;;;;;10.29;88.84;99925.47;5014916;28;20081;-72
2022/12/29 06:52:57;;;;;;;4.50;0.60;;;;;;;10.26;89.14;99925.81;5004347;28;20030;-72
2022/12/29 06:55:23;;;;;;;1.17;0.60;;;;;;;10.19;89.45;99930.13;5019241;28;20373;-72
2022/12/29 06:57:48;;;;;;;2.78;0.60;;;;;;;10.23;89.08;99925.38;5004972;28;20029;-72
2022/12/29 07:00:14;;;;;;;8.75;0.70;;;;;;;10.14;89.34;99929.81;4999893;28;20045;-72
2022/12/29 07:02:40;;;;;;;6.40;0.98;;;;;;;10.22;88.63;99916.78;4996364;28;20025;-72
2022/12/29 07:05:07;;;;;;;3.28;0.70;;;;;;;10.22;88.39;99934.13;4997620;28;20448;-72
2022/12/29 07:07:32;;;;;;;7.10;0.57;;;;;;;10.27;87.50;99937.00;5001063;28;20037;-72
2022/12/29 07:09:58;;;;;;;4.13;1.35;;;;;;;10.05;88.18;99943.81;4986096;28;20409;-72
2022/12/29 07:12:23;;;;;;;2.38;0.68;;;;;;;10.18;87.04;99938.84;4997974;28;20061;-73
2022/12/29 07:14:49;;;;;;;1.30;0.52;;;;;;;10.21;86.48;99946.28;4992868;28;20041;-72
2022/12/29 07:17:14;;;;;;;5.47;0.60;;;;;;;10.22;86.47;99942.69;5000922;28;20038;-73
2022/12/29 07:19:39;;;;;;;5.43;0.75;;;;;;;10.11;87.00;99941.34;4988283;28;20042;-72
2022/12/29 07:22:05;;;;;;;4.40;0.55;;;;;;;10.16;86.86;99947.78;4998984;28;20026;-73
2022/12/29 07:24:31;;;;;;;4.10;0.60;;;;;;;10.17;87.42;99957.97;5002715;28;20030;-72
2022/12/29 07:26:56;;;;;;;4.47;0.70;;;;;;;10.16;87.39;99955.56;5022074;28;20049;-72
2022/12/29 07:29:22;;;;;;;6.22;1.20;;;;;;;10.09;87.62;99970.97;5002075;28;20045;-72
2022/12/29 07:31:47;;;;;;;7.55;2.20;;;;;;;10.01;88.12;99961.47;5017815;28;20237;-72
2022/12/29 07:34:13;;;;;;;6.55;1.30;;;;;;;9.97;87.82;99975.75;4999525;28;20378;-73
2022/12/29 07:36:39;;;;;;;28.27;9.20;;;;;;;9.98;87.96;99977.34;5019466;28;20057;-73
2022/12/29 07:39:04;;;;;;;36.55;12.98;;;;;;;10.13;87.35;99977.41;5014761;28;20408;-72
2022/12/29 07:41:30;;;;;;;25.88;8.30;;;;;;;10.08;87.13;99975.34;5017453;28;20045;-72
2022/12/29 07:43:55;;;;;;;13.65;4.40;;;;;;;10.17;86.38;99980.47;4998750;28;20045;-72
2022/12/29 07:46:40;;;;;;;29.75;10.30;;;;;;;10.15;86.41;99996.19;5000999;28;20045;-72
2022/12/29 07:49:05;;;;;;;25.45;8.80;;;;;;;10.00;87.15;99990.13;5002415;28;21403;-72
2022/12/29 07:51:31;;;;;;;70.50;22.42;;;;;;;9.99;87.33;99989.34;5001174;28;20030;-72
2022/12/29 07:53:59;;;;;;;10.07;2.50;;;;;;;9.97;86.37;99990.50;5001206;28;20539;-72
2022/12/29 07:56:24;;;;;;;9.45;2.47;;;;;;;9.94;86.66;99989.03;5022581;28;20035;-72
2022/12/29 07:58:50;;;;;;;11.40;3.10;;;;;;;10.04;86.05;99989.63;5004851;28;20034;-72
2022/12/29 08:01:15;;;;;;;33.35;10.57;;;;;;;9.97;86.45;99990.50;4999887;28;20031;-72
2022/12/29 08:03:41;;;;;;;44.13;16.23;;;;;;;9.97;86.58;99993.09;5002301;28;20037;-72
2022/12/29 08:06:11;;;;;;;14.93;5.13;;;;;;;10.01;85.59;99987.38;4997123;28;20031;-72
2022/12/29 08:08:37;;;;;;;14.50;5.32;;;;;;;9.96;85.96;100000.03;5017529;28;20445;-73
2022/12/29 08:11:03;;;;;;;8.05;2.17;;;;;;;9.87;86.13;100001.06;4988145;28;20153;-72
2022/12/29 08:13:29;;;;;;;27.17;11.13;;;;;;;9.88;86.26;100000.88;5019191;28;20113;-72
2022/12/29 08:15:54;;;;;;;7.88;1.83;;;;;;;9.86;86.59;100013.19;5005712;28;20045;-72
2022/12/29 08:18:20;;;;;;;14.02;3.75;;;;;;;9.88;86.02;100013.03;5007912;28;20033;-72
2022/12/29 08:20:45;;;;;;;11.77;2.30;;;;;;;9.86;86.48;100031.31;5001417;28;20560;-72
2022/12/29 08:23:11;;;;;;;12.82;1.70;;;;;;;9.86;86.69;100040.88;5019276;28;20484;-72
2022/12/29 08:25:36;;;;;;;16.33;2.70;;;;;;;9.85;86.39;100037.50;4994513;28;20034;-72
2022/12/29 08:28:02;;;;;;;7.05;1.20;;;;;;;9.91;86.44;100051.56;5002090;28;20034;-73
2022/12/29 08:30:27;;;;;;;5.05;1.00;;;;;;;9.90;88.59;100042.94;5020091;28;21667;-72
2022/12/29 08:32:53;;;;;;;11.30;1.55;;;;;;;9.72;89.83;100053.56;4986937;28;20527;-72
2022/12/29 08:35:19;;;;;;;6.25;0.82;;;;;;;9.81;89.92;100035.41;5005684;28;20042;-72
2022/12/29 08:37:44;;;;;;;5.05;1.00;;;;;;;9.70;90.40;100042.59;5005603;28;20097;-72
2022/12/29 08:40:10;;;;;;;9.05;1.95;;;;;;;9.70;89.87;100046.94;5019618;28;20554;-73
2022/12/29 08:42:35;;;;;;;9.38;1.70;;;;;;;9.65;90.28;100051.81;5005425;28;20076;-72
2022/12/29 08:45:01;;;;;;;9.90;1.98;;;;;;;9.65;90.26;100046.66;5004543;28;20030;-72
2022/12/29 08:47:27;;;;;;;16.85;1.42;;;;;;;9.54;91.03;100043.44;5019113;28;20034;-72
2022/12/29 08:49:53;;;;;;;5.78;0.75;;;;;;;9.52;91.23;100044.59;5001247;28;20037;-72
2022/12/29 08:52:19;;;;;;;4.15;0.93;;;;;;;9.58;90.63;100049.09;4999192;28;20117;-73
2022/12/29 08:54:44;;;;;;;6.72;1.10;;;;;;;9.54;89.90;100047.81;4983312;28;20030;-73
2022/12/29 08:57:10;;;;;;;9.27;1.50;;;;;;;9.65;89.28;100046.66;5001947;28;20034;-72
2022/12/29 08:59:43;;;;;;;6.55;0.70;;;;;;;9.67;89.23;100057.63;4984129;28;20038;-72
2022/12/29 09:02:11;;;;;;;3.63;0.68;;;;;;;9.85;88.12;100052.19;5003413;28;20049;-72
2022/12/29 09:04:37;;;;;;;11.30;1.15;;;;;;;9.86;87.53;100052.03;4994946;28;20045;-72
2022/12/29 09:07:02;;;;;;;2.60;0.80;;;;;;;9.81;87.33;100056.91;4988894;28;20033;-73
2022/12/29 09:09:28;;;;;;;8.88;1.00;;;;;;;9.92;86.08;100072.06;5007306;28;21457;-72
2022/12/29 09:11:53;;;;;;;6.95;0.95;;;;;;;9.92;85.27;100068.69;5027581;28;20511;-72
2022/12/29 09:14:21;;;;;;;7.97;0.95;;;;;;;9.94;85.94;100064.13;5002863;28;20069;-72
2022/12/29 09:19:31;;;;;;;6.00;1.00;;;;;;;9.99;85.62;100077.41;4998656;28;20447;-72
2022/12/29 09:21:57;;;;;;;10.50;0.88;;;;;;;10.00;84.89;100084.22;5021775;28;20030;-72
2022/12/29 09:24:22;;;;;;;8.88;1.65;;;;;;;9.96;85.13;100082.09;5014350;28;20394;-72
2022/12/29 09:26:48;;;;;;;9.35;1.30;;;;;;;9.94;85.47;100079.69;5019000;28;20046;-73
2022/12/29 09:29:13;;;;;;;3.70;1.10;;;;;;;10.00;84.23;100076.44;4991498;28;20038;-72
2022/12/29 09:31:38;;;;;;;6.18;0.90;;;;;;;9.96;83.09;100076.94;5007305;28;20068;-73
2022/12/29 09:34:04;;;;;;;5.43;1.65;;;;;;;9.98;82.23;100080.16;4989633;28;20030;-72
2022/12/29 09:36:29;;;;;;;4.55;0.73;;;;;;;9.91;83.32;100072.28;5006965;28;20560;-72
2022/12/29 09:38:55;;;;;;;8.23;1.10;;;;;;;10.01;82.40;100090.97;5019031;28;20049;-72
2022/12/29 09:41:30;;;;;;;13.32;1.20;;;;;;;10.05;81.83;100078.50;4999121;28;20034;-72
2022/12/29 09:44:07;;;;;;;8.02;1.20;;;;;;;10.08;80.73;100075.59;5002031;28;20504;-73
2022/12/29 09:46:40;;;;;;;9.43;1.10;;;;;;;10.11;80.54;100090.78;5020964;28;20033;-72
2022/12/29 09:49:08;;;;;;;6.53;0.77;;;;;;;10.04;80.84;100082.06;5017434;28;20121;-72
2022/12/29 09:51:36;;;;;;;14.68;4.00;;;;;;;10.01;80.59;100072.06;5004816;28;20049;-72
2022/12/29 09:54:21;;;;;;;22.92;6.72;;;;;;;10.08;80.43;100085.94;5004590;28;20771;-72
2022/12/29 09:56:47;;;;;;;18.08;3.72;;;;;;;10.02;79.25;100084.00;5011982;28;20029;-72
2022/12/29 09:59:21;;;;;;;31.38;10.05;;;;;;;10.21;78.41;100086.19;4989785;28;20046;-72
2022/12/29 10:01:57;;;;;;;20.20;6.07;;;;;;;10.20;77.64;100069.03;4965824;28;20085;-72
2022/12/29 10:04:26;;;;;;;18.70;5.07;;;;;;;10.16;77.68;100088.47;4983295;28;20053;-72
2022/12/29 10:07:27;;;;;;;8.02;2.17;;;;;;;10.20;76.47;100083.78;4982088;28;20049;-72
2022/12/29 10:09:55;;;;;;;18.10;5.95;;;;;;;10.12;76.71;100087.22;4983155;28;20047;-72
2022/12/29 10:12:27;;;;;;;8.30;1.95;;;;;;;10.19;76.89;100088.16;4986679;28;20053;-72
2022/12/29 10:15:10;;;;;;;14.00;5.25;;;;;;;10.13;76.76;100070.69;4984878;28;20185;-72
2022/12/29 10:17:42;;;;;;;;;;;;;;;10.19;76.32;100082.97;5002517;28;21241;-72
2022/12/29 10:20:10;;;;;;;9.10;3.45;;;;;;;10.17;76.39;100084.09;5001427;28;19917;-72
2022/12/29 10:23:00;;;;;;;17.65;4.55;;;;;;;10.21;76.86;100082.78;5000250;28;20124;-72
2022/12/29 10:25:31;;;;;;;6.97;1.40;;;;;;;10.23;76.15;100094.59;5001180;28;20416;-72
2022/12/29 10:28:04;;;;;;;10.82;1.95;;;;;;;10.22;76.73;100092.97;4988542;28;20180;-72
2022/12/29 10:30:34;;;;;;;13.63;1.98;;;;;;;10.26;76.27;100096.84;5006902;28;20522;-72
2022/12/29 10:33:11;;;;;;;10.45;3.03;;;;;;;10.22;76.77;100087.78;5003000;28;20065;-72
2022/12/29 10:35:42;;;;;;;12.10;2.67;;;;;;;10.32;76.47;100093.63;5000325;28;20069;-72
2022/12/29 10:38:15;;;;;;;11.63;2.65;;;;;;;10.34;76.53;100103.81;5006142;28;20034;-74
2022/12/29 10:40:59;;;;;;;7.20;1.33;;;;;;;10.35;75.81;100102.81;5007157;28;20756;-72
2022/12/29 10:43:43;;;;;;;11.05;1.85;;;;;;;10.32;75.73;100122.13;4999759;28;20052;-72
2022/12/29 10:46:13;;;;;;;13.07;2.53;;;;;;;10.38;76.04;100102.47;5016043;28;20496;-71
2022/12/29 10:48:39;;;;;;;10.73;1.40;;;;;;;10.39;75.13;100100.69;4995720;28;20696;-73
2022/12/29 10:51:08;;;;;;;12.50;2.08;;;;;;;10.43;75.47;100120.91;5001652;28;20048;-72
2022/12/29 10:54:04;;;;;;;10.05;1.35;;;;;;;10.48;74.68;100125.59;4986533;28;20069;-73
2022/12/29 10:56:49;;;;;;;9.80;3.55;;;;;;;10.44;75.00;100145.06;5017536;28;20111;-73
2022/12/29 10:59:23;;;;;;;12.43;1.83;;;;;;;10.41;75.01;100140.19;5000489;28;20030;-73
2022/12/29 11:02:07;;;;;;;9.07;1.73;;;;;;;10.34;75.20;100114.19;5004240;28;20060;-71
2022/12/29 11:04:38;;;;;;;7.80;1.45;;;;;;;10.40;74.20;100130.81;4980366;28;20041;-72
2022/12/29 11:07:18;;;;;;;22.90;5.78;;;;;;;10.36;75.11;100137.31;4999150;28;20026;-73
2022/12/29 11:09:46;;;;;;;13.10;3.45;;;;;;;10.35;74.70;100135.72;4993324;28;20504;-72
2022/12/29 11:12:25;;;;;;;10.40;2.80;;;;;;;10.36;74.90;100145.91;5003836;23;20085;-73
2022/12/29 11:15:21;;;;;;;16.02;4.22;;;;;;;10.38;75.25;100153.50;5002769;28;20052;-74
2022/12/29 11:17:59;;;;;;;10.57;2.75;;;;;;;10.39;75.04;100162.91;4994218;28;20045;-73
2022/12/29 11:20:38;;;;;;;16.52;2.83;;;;;;;10.44;74.44;100184.72;4976509;28;20038;-73
2022/12/29 11:23:27;;;;;;;18.45;3.42;;;;;;;10.49;74.84;100168.66;5014742;28;20072;-73
2022/12/29 11:26:11;;;;;;;22.08;5.10;;;;;;;10.52;73.94;100176.91;4996709;28;20042;-73
2022/12/29 11:28:38;;;;;;;17.55;5.78;;;;;;;10.59;74.44;100177.03;5006350;28;20519;-73
2022/12/29 11:31:06;;;;;;;14.55;1.70;;;;;;;10.49;73.88;100179.03;5008739;28;20025;-73
2022/12/29 11:33:34;;;;;;;13.68;2.42;;;;;;;10.57;74.12;100179.00;4988869;28;20033;-73
2022/12/29 11:36:13;;;;;;;12.23;1.52;;;;;;;10.46;73.57;100182.78;4991687;28;20046;-73
2022/12/29 11:38:51;;;;;;;14.70;1.85;;;;;;;10.37;74.14;100175.22;4978475;28;20399;-73
2022/12/29 11:41:23;;;;;;;9.27;1.30;;;;;;;10.30;74.41;100159.50;5006600;28;20061;-72
2022/12/29 11:43:51;;;;;;;8.98;1.67;;;;;;;10.31;74.41;100171.53;4987766;28;20087;-72
2022/12/29 11:46:22;;;;;;;7.43;1.38;;;;;;;10.45;73.82;100193.31;5001270;28;20125;-73
2022/12/29 11:48:48;;;;;;;6.43;0.90;;;;;;;10.49;74.09;100195.41;5003872;28;20541;-73
2022/12/29 11:51:23;;;;;;;14.50;2.58;;;;;;;10.51;73.88;100185.66;4978979;28;20037;-73
2022/12/29 11:53:59;;;;;;;13.85;2.10;;;;;;;10.45;73.44;100196.72;4982953;28;20027;-73
2022/12/29 11:56:43;;;;;;;12.25;1.45;;;;;;;10.52;73.46;100197.63;4998847;28;20037;-72
2022/12/29 11:59:26;;;;;;;8.57;1.85;;;;;;;10.43;73.48;100200.44;4988289;28;20533;-73
2022/12/29 12:01:53;;;;;;;10.15;2.72;;;;;;;10.45;74.23;100206.25;4998011;28;20062;-72
2022/12/29 12:04:22;;;;;;;9.77;1.80;;;;;;;10.46;73.97;100200.91;4996253;28;20039;-73
2022/12/29 12:07:12;;;;;;;7.10;1.63;;;;;;;10.49;74.39;100212.72;4982796;28;20110;-73
2022/12/29 12:09:50;;;;;;;11.25;1.95;;;;;;;10.39;74.72;100210.34;4994958;28;20073;-73
2022/12/29 12:12:24;;;;;;;10.13;1.02;;;;;;;10.42;73.84;100222.19;4980015;28;20034;-73
2022/12/29 12:14:59;;;;;;;11.90;2.30;;;;;;;10.48;73.33;100205.94;4982388;28;20471;-73
2022/12/29 12:17:51;;;;;;;8.52;1.90;;;;;;;10.41;74.06;100210.97;4971060;28;20049;-73
2022/12/29 12:20:42;;;;;;;11.63;1.88;;;;;;;10.39;73.66;100214.72;4985022;28;20070;-73
2022/12/29 12:23:42;;;;;;;14.57;1.67;;;;;;;10.46;74.24;100207.91;4984519;28;20037;-73